• Join FlightAware (Why Join?)
  • Login
  • US Flag 
02:50AM EST


 

Airport Tracker/Info


-or-


 

Live Flight TrackerFlight Track Log ✈ SWA1435 ✈ 22-Apr-2013 ✈ KSTL - KOMA

Flight Track Log - Related Links

Times and Time Zones

All times are in EDT time to prevent confusion due to time zone crossing. See the SWA1435 flight status page for this flight to view local times or setup timezone preferences in your user account.

Time Position Orientation Groundspeed Altitude Reporting Facility
EDT Latitude Longitude Course Direction KTS MPH feet Rate Location/Type
09:34AM 38.7278 -90.2800 122° Southeast 147 169 2,000  Level FAA TRACON SMA TRACON (SMA)
09:34AM 38.7197 -90.2636 122° Southeast 165 190 2,600 2,520 Climbing FAA TRACON SMA TRACON (SMA)
09:34AM 38.7047 -90.2436 134° Southeast 206 237 3,700 3,180 Climbing FAA TRACON SMA TRACON (SMA)
09:35AM 38.6864 -90.2436 180° South 226 260 4,800 3,420 Climbing FAA TRACON SMA TRACON (SMA)
09:35AM 38.6708 -90.2583 216° Southwest 232 267 6,000 3,480 Climbing FAA TRACON SMA TRACON (SMA)
09:35AM 38.6650 -90.2822 253° West 238 274 7,100 3,120 Climbing FAA TRACON SMA TRACON (SMA)
09:36AM 38.6633 -90.3172 267° West 256 295 8,100 2,880 Climbing FAA TRACON SMA TRACON (SMA)
09:36AM 38.6739 -90.3447 296° West 283 326 9,100 3,600 Climbing FAA TRACON SMA TRACON (SMA)
09:36AM 38.6878 -90.3719 303° West 294 338 10,500 2,820 Climbing FAA TRACON SMA TRACON (SMA)
09:37AM 38.7108 -90.4097 308° West 345 397 11,000 2,100 Climbing FAA TRACON SMA TRACON (SMA)
09:37AM 38.7314 -90.4400 311° West 366 421 11,900 3,300 Climbing FAA TRACON SMA TRACON (SMA)
09:37AM 38.7514 -90.4692 311° West 359 413 13,200 3,480 Climbing FAA TRACON SMA TRACON (SMA)
09:38AM 38.7708 -90.4986 310° West 352 405 14,200 3,600 Climbing FAA TRACON SMA TRACON (SMA)
09:38AM 38.7950 -90.5358 310° West 353 406 15,600 3,600 Climbing FAA TRACON SMA TRACON (SMA)
09:38AM 38.8144 -90.5661 310° West 357 411 16,700 3,120 Climbing FAA TRACON SMA TRACON (SMA)
09:39AM 38.8342 -90.5969 309° West 360 414 17,700 2,880 Climbing FAA TRACON SMA TRACON (SMA)
09:39AM 38.8597 -90.6358 310° West 368 423 18,700 2,760 Climbing FAA TRACON SMA TRACON (SMA)
09:39AM 38.8800 -90.6678 309° West 374 430 19,500 2,460 Climbing FAA TRACON SMA TRACON (SMA)
09:40AM 38.9003 -90.7003 309° West 380 437 20,300 2,700 Climbing FAA TRACON SMA TRACON (SMA)
09:40AM 38.9261 -90.7422 308° West 388 447 21,500 3,240 Climbing FAA TRACON SMA TRACON (SMA)
09:40AM 38.9531 -90.7836 310° West 392 451 22,600 2,700 Climbing FAA TRACON SMA TRACON (SMA)
09:41AM 38.9675 -90.8097 305° West 392 451 23,200 2,520 Climbing FAA TRACON SMA TRACON (SMA)
09:41AM 38.9956 -90.8511 311° West 398 458 24,200 2,580 Climbing FAA TRACON SMA TRACON (SMA)
09:41AM 39.0164 -90.8861 307° West 400 460 24,900 1,920 Climbing FAA TRACON SMA TRACON (SMA)
09:42AM 39.0394 -90.9200 311° West 406 467 25,500 2,040 Climbing FAA TRACON SMA TRACON (SMA)
09:42AM 39.0650 -90.9661 306° West 413 475 26,300 2,220 Climbing FAA TRACON SMA TRACON (SMA)
09:42AM 39.0886 -91.0008 311° West 418 481 27,000 1,980 Climbing FAA TRACON SMA TRACON (SMA)
09:43AM 39.1094 -91.0386 305° West 420 483 27,600 2,220 Climbing FAA TRACON SMA TRACON (SMA)
09:43AM 39.1308 -91.0894 298° West 421 484 28,500 2,160 Climbing FAA TRACON SMA TRACON (SMA)
09:43AM 39.1489 -91.1294 300° West 421 484 29,100 2,100 Climbing FAA TRACON SMA TRACON (SMA)
09:44AM 39.1658 -91.1708 298° West 421 484 29,900 2,820 Climbing FAA TRACON SMA TRACON (SMA)
09:44AM 39.1869 -91.2211 298° West 418 481 31,000 2,700 Climbing FAA TRACON SMA TRACON (SMA)
09:44AM 39.2047 -91.2600 301° West 412 474 31,700 1,500 Climbing FAA TRACON SMA TRACON (SMA)
09:45AM 39.2203 -91.3006 296° West 410 472 32,000 300 Climbing FAA TRACON SMA TRACON (SMA)
09:45AM 39.2561 -91.3911 297° West 409 471 32,000  Level FAA TRACON SMA TRACON (SMA)
09:46AM 39.2722 -91.4314 297° West 411 473 32,000  Level FAA TRACON SMA TRACON (SMA)
09:46AM 39.2750 -91.5025 273° West 413 475 32,000  Level Kansas City Center
09:47AM 39.3256 -91.6333 297° West 410 472 32,000  Level Kansas City Center
09:48AM 39.3883 -91.7928 297° West 412 474 32,000  Level Kansas City Center
09:49AM 39.4400 -91.9244 297° West 413 475 32,000  Level Kansas City Center
09:50AM 39.4903 -92.0572 296° West 413 475 32,000  Level Kansas City Center
09:51AM 39.5406 -92.1867 297° West 409 471 32,000  Level Kansas City Center
09:52AM 39.5919 -92.3178 297° West 408 470 32,000  Level Kansas City Center
09:53AM 39.6422 -92.4478 297° West 407 468 32,000 -300 Level Kansas City Center
09:54AM 39.7247 -92.5889 307° West 411 473 31,400 -840 Descending Kansas City Center
09:55AM 39.7981 -92.7019 310° West 410 472 30,400 -1,020 Descending Kansas City Center
09:56AM 39.8689 -92.8147 309° West 405 466 29,400 -960 Descending Kansas City Center
09:57AM 39.9397 -92.9242 310° West 397 457 28,400 -720 Descending Kansas City Center
09:58AM 40.0069 -93.0308 309° West 387 445 28,000 -180 Descending Kansas City Center
10:00AM 40.1353 -93.2347 310° West 406 467 28,000  Level Minneapolis Center
10:00AM 40.1506 -93.2578 311° West 404 465 28,000  Level Kansas City Center
10:01AM 40.2381 -93.3964 310° West 411 473 28,000  Level Kansas City Center
10:02AM 40.3103 -93.5122 309° West 412 474 28,000  Level Kansas City Center
10:03AM 40.3836 -93.6275 310° West 412 474 28,000  Level Kansas City Center
10:04AM 40.4253 -93.6961 309° West 411 473 28,000  Level Minneapolis Center
10:05AM 40.4969 -93.8100 310° West 408 470 28,000  Level Minneapolis Center
10:06AM 40.5675 -93.9239 309° West 405 466 28,000 -420 Level Minneapolis Center
10:07AM 40.6108 -94.0533 294° West 391 450 27,200 -1,080 Descending Minneapolis Center
10:08AM 40.6344 -94.2114 281° West 370 426 25,900 -1,140 Descending Minneapolis Center
10:09AM 40.6572 -94.3403 283° West 365 420 24,900 -1,020 Descending Minneapolis Center
10:10AM 40.6772 -94.4717 281° West 367 422 23,900 -1,020 Descending Minneapolis Center
10:11AM 40.6983 -94.6017 282° West 366 421 22,900 -1,080 Descending Minneapolis Center
10:12AM 40.7217 -94.7286 284° West 362 417 21,800 -1,620 Descending Minneapolis Center
10:13AM 40.7422 -94.8564 282° West 359 413 19,700 -2,160 Descending Minneapolis Center
10:14AM 40.7697 -94.9444 292° West 349 402 18,200 -1,980 Descending Minneapolis Center
10:14AM 40.7600 -94.9847 252° West 356 410 17,700 -2,160 Descending Minneapolis Center
10:15AM 40.7803 -95.0314 300° West 347 399 16,700 -2,400 Descending Minneapolis Center
10:15AM 40.7853 -95.1083 275° West 352 405 15,300 -3,180 Descending Minneapolis Center
10:16AM 40.8381 -95.1617 323° Northwest 376 433 13,200 -3,240 Descending Minneapolis Center
10:16AM 40.8550 -95.2147 293° West 382 440 12,000 -3,000 Descending Minneapolis Center
10:17AM 40.9028 -95.2722 318° Northwest 387 445 10,200 -1,920 Descending Minneapolis Center
10:17AM 40.9336 -95.3431 300° West 380 437 10,100 -180 Descending Minneapolis Center
10:18AM 40.9675 -95.3883 315° West 322 371 10,000 -720 Descending Minneapolis Center
10:18AM 40.9867 -95.4314 301° West 340 391 9,400 -1,320 Descending Minneapolis Center
10:19AM 41.0222 -95.4811 313° West 289 333 8,600 -1,620 Descending Minneapolis Center
10:19AM 41.0378 -95.5161 301° West 311 358 7,800 -1,740 Descending Minneapolis Center
10:20AM 41.0681 -95.5669 308° West 281 323 6,900 -1,560 Descending Minneapolis Center
10:20AM 41.0814 -95.6031 296° West 296 341 6,200 -1,800 Descending Minneapolis Center
10:21AM 41.1008 -95.6514 298° West 272 313 5,300 -1,800 Descending Minneapolis Center
10:21AM 41.1150 -95.6919 295° West 282 325 4,400 -1,680 Descending Minneapolis Center
10:22AM 41.1378 -95.7328 307° West 264 304 3,600 -1,200 Descending Minneapolis Center
10:22AM 41.1631 -95.7564 325° Northwest 266 306 3,200 -720 Descending Minneapolis Center
10:23AM 41.1872 -95.7797 324° Northwest 227 261 3,000 -300 Descending Minneapolis Center
10:24AM 41.2111 -95.8025 324° Northwest 236 272 2,900 -420 Descending Minneapolis Center
10:24AM 41.2253 -95.8194 318° Northwest 153 176 2,600 -720 Descending Minneapolis Center
10:25AM 41.2447 -95.8350 329° Northwest 188 216 2,200 -780 Descending Minneapolis Center
10:26AM 41.2825 -95.8711 324° Northwest 152 175 1,300 -600 Descending Minneapolis Center
10:27AM 41.3108 -95.8978 325° Northwest 147 169 1,000 -300 Descending Minneapolis Center